createdAt,value
2023-01-04T00:01:34.693Z,100367.45
2023-01-04T00:04:02.796Z,100367.81
2023-01-04T00:06:30.736Z,100365.22
2023-01-04T00:08:58.624Z,100367.67
2023-01-04T00:11:27.874Z,100371.17
2023-01-04T00:13:58.460Z,100371.01
2023-01-04T00:16:28.121Z,100365.80
2023-01-04T00:18:56.934Z,100365.28
2023-01-04T00:21:27.758Z,100360.77
2023-01-04T00:24:01.059Z,100361.13
2023-01-04T00:26:31.873Z,100358.17
2023-01-04T00:29:02.967Z,100356.61
2023-01-04T00:31:31.664Z,100351.56
2023-01-04T00:34:01.851Z,100350.34
2023-01-04T00:36:30.307Z,100353.13
2023-01-04T00:39:10.396Z,100350.70
2023-01-04T00:41:59.250Z,100346.69
2023-01-04T00:44:29.407Z,100343.73
2023-01-04T00:46:58.533Z,100349.45
2023-01-04T00:49:27.464Z,100348.24
2023-01-04T00:51:55.827Z,100349.13
2023-01-04T00:54:24.338Z,100346.35
2023-01-04T00:56:52.452Z,100341.14
2023-01-04T00:59:21.906Z,100338.70
2023-01-04T01:01:51.034Z,100340.44
2023-01-04T01:04:22.483Z,100336.27
2023-01-04T01:06:52.011Z,100334.17
2023-01-04T01:09:22.900Z,100335.73
2023-01-04T01:11:52.816Z,100340.08
2023-01-04T01:14:24.044Z,100341.80
2023-01-04T01:16:55.798Z,100339.37
2023-01-04T01:19:28.084Z,100339.72
2023-01-04T01:21:57.477Z,100340.41
2023-01-04T01:24:26.588Z,100342.51
2023-01-04T01:26:55.636Z,100340.77
2023-01-04T01:29:23.810Z,100339.56
2023-01-04T01:31:51.811Z,100336.27
2023-01-04T01:34:20.716Z,100335.05
2023-01-04T01:36:48.986Z,100330.17
2023-01-04T01:39:17.134Z,100323.91
2023-01-04T01:41:45.168Z,100317.14
2023-01-04T01:44:45.242Z,100311.94
2023-01-04T01:47:21.372Z,100311.59
2023-01-04T01:49:53.558Z,100309.67
2023-01-04T01:52:30.352Z,100304.83
2023-01-04T01:55:07.323Z,100304.64
2023-01-04T01:57:38.026Z,100308.64
2023-01-04T02:00:14.451Z,100312.10
2023-01-04T02:03:18.242Z,100307.06
2023-01-04T02:05:53.770Z,100303.95
2023-01-04T02:08:25.003Z,100299.94
2023-01-04T02:10:53.149Z,100296.64
2023-01-04T02:13:47.201Z,100293.52
2023-01-04T02:16:21.497Z,100292.64
2023-01-04T02:19:23.901Z,100287.59
2023-01-04T02:21:57.673Z,100286.19
2023-01-04T02:24:40.572Z,100282.54
2023-01-04T02:27:29.460Z,100279.59
2023-01-04T02:30:22.251Z,100272.64
2023-01-04T02:33:22.258Z,100267.60
2023-01-04T02:36:12.848Z,100263.96
2023-01-04T02:38:49.686Z,100262.75
2023-01-04T02:41:36.808Z,100261.89
2023-01-04T02:44:26.418Z,100265.35
2023-01-04T02:47:04.091Z,100257.38
2023-01-04T02:49:51.060Z,100255.98
2023-01-04T02:52:22.309Z,100251.13
2023-01-04T02:54:53.364Z,100242.78
2023-01-04T02:57:36.978Z,100241.05
2023-01-04T03:00:16.875Z,100241.05
2023-01-04T03:03:23.831Z,100238.10
2023-01-04T03:06:32.961Z,100233.07
2023-01-04T03:09:19.774Z,100228.73
2023-01-04T03:12:12.103Z,100228.90
2023-01-04T03:15:00.478Z,100221.62
2023-01-04T03:17:34.643Z,100215.55
2023-01-04T03:20:03.547Z,100204.96
2023-01-04T03:22:57.747Z,100201.84
2023-01-04T03:25:46.871Z,100199.93
2023-01-04T03:28:36.415Z,100192.81
2023-01-04T03:31:35.364Z,100187.97
2023-01-04T03:34:23.014Z,100183.45
2023-01-04T03:37:17.348Z,100179.65
2023-01-04T03:40:14.503Z,100175.83
2023-01-04T03:43:14.089Z,100174.27
2023-01-04T03:46:10.445Z,100174.61
2023-01-04T03:48:50.170Z,100167.65
2023-01-04T03:51:26.994Z,100160.17
2023-01-04T03:54:00.946Z,100159.13
2023-01-04T03:56:31.095Z,100155.11
2023-01-04T03:58:59.993Z,100150.59
2023-01-04T04:01:28.939Z,100151.45
2023-01-04T04:04:15.726Z,100150.92
2023-01-04T04:07:02.262Z,100150.57
2023-01-04T04:09:30.321Z,100143.79
2023-01-04T04:11:58.827Z,100138.73
2023-01-04T04:14:26.802Z,100143.60
2023-01-04T04:16:54.733Z,100139.95
2023-01-04T04:19:22.704Z,100131.25
2023-01-04T04:21:50.649Z,100128.13
2023-01-04T04:24:22.364Z,100127.95
2023-01-04T04:26:54.742Z,100124.98
2023-01-04T04:29:24.235Z,100123.41
2023-01-04T04:31:54.307Z,100120.46
2023-01-04T04:34:22.317Z,100116.10
2023-01-04T04:36:50.243Z,100112.09
2023-01-04T04:39:18.274Z,100113.13
2023-01-04T04:41:46.260Z,100103.58
2023-01-04T04:44:16.976Z,100092.11
2023-01-04T04:46:46.424Z,100091.41
2023-01-04T04:49:15.827Z,100092.46
2023-01-04T04:51:45.316Z,100088.14
2023-01-04T04:54:19.131Z,100091.98
2023-01-04T04:56:48.480Z,100099.09
2023-01-04T04:59:16.718Z,100097.36
2023-01-04T05:01:44.879Z,100090.41
2023-01-04T05:04:16.651Z,100088.14
2023-01-04T05:06:49.736Z,100094.55
2023-01-04T05:09:17.691Z,100088.48
2023-01-04T05:12:03.949Z,100088.30
2023-01-04T05:14:31.888Z,100072.48
2023-01-04T05:16:59.992Z,100064.34
2023-01-04T05:19:28.019Z,100057.39
2023-01-04T05:21:55.906Z,100055.84
2023-01-04T05:24:23.902Z,100053.05
2023-01-04T05:26:51.785Z,100058.10
2023-01-04T05:29:38.336Z,100056.03
2023-01-04T05:32:06.406Z,100047.87
2023-01-04T05:34:34.319Z,100040.75
2023-01-04T05:37:02.259Z,100041.98
2023-01-04T05:39:31.082Z,100038.19
2023-01-04T05:42:17.792Z,100038.55
2023-01-04T05:44:45.689Z,100033.86
2023-01-04T05:47:15.334Z,100032.84
2023-01-04T05:49:44.008Z,100023.83
2023-01-04T05:52:11.936Z,100022.08
2023-01-04T05:54:40.336Z,100015.30
2023-01-04T05:57:08.927Z,100014.10
2023-01-04T05:59:41.553Z,100011.85
2023-01-04T06:02:40.358Z,100007.33
2023-01-04T06:05:10.038Z,100010.13
2023-01-04T06:07:39.592Z,100007.17
2023-01-04T06:10:09.321Z,100003.88
2023-01-04T06:12:37.710Z,100005.27
2023-01-04T06:15:07.118Z,99999.35
2023-01-04T06:17:35.373Z,99996.57
2023-01-04T06:20:05.020Z,99993.63
2023-01-04T06:22:33.594Z,99994.13
2023-01-04T06:25:02.293Z,99985.95
2023-01-04T06:27:30.392Z,99974.33
2023-01-04T06:29:58.311Z,99968.41
2023-01-04T06:32:26.189Z,99957.30
2023-01-04T06:34:54.084Z,99954.20
2023-01-04T06:37:24.062Z,99950.02
2023-01-04T06:39:53.190Z,99943.79
2023-01-04T06:42:39.590Z,99943.96
2023-01-04T06:45:07.884Z,99932.86
2023-01-04T06:47:36.697Z,99931.48
2023-01-04T06:50:05.154Z,99933.02
2023-01-04T06:52:33.121Z,99930.05
2023-01-04T06:55:01.033Z,99927.93
2023-01-04T06:57:30.874Z,99926.27
2023-01-04T06:59:58.858Z,99920.29
2023-01-04T07:02:27.014Z,99917.95
2023-01-04T07:04:55.120Z,99914.77
2023-01-04T07:07:23.047Z,99909.83
2023-01-04T07:09:50.918Z,99911.50
2023-01-04T07:12:18.901Z,99905.48
2023-01-04T07:14:46.882Z,99904.02
2023-01-04T07:17:14.912Z,99903.27
2023-01-04T07:19:42.865Z,99899.73
2023-01-04T07:22:10.738Z,99897.55
2023-01-04T07:24:38.703Z,99892.93
2023-01-04T07:27:06.727Z,99886.23
2023-01-04T07:29:34.704Z,99887.02
2023-01-04T07:32:02.738Z,99876.80
2023-01-04T07:34:31.420Z,99873.55
2023-01-04T07:36:59.318Z,99871.66
2023-01-04T07:39:27.196Z,99872.74
2023-01-04T07:41:55.275Z,99875.58
2023-01-04T07:44:27.712Z,99875.76
2023-01-04T07:46:57.083Z,99869.84
2023-01-04T07:49:25.097Z,99876.64
2023-01-04T07:51:53.016Z,99877.00
2023-01-04T07:54:21.590Z,99870.17
2023-01-04T07:56:49.517Z,99862.11
2023-01-04T07:59:20.788Z,99860.30
2023-01-04T08:01:49.572Z,99852.31
2023-01-04T08:04:18.199Z,99846.36
2023-01-04T08:06:49.222Z,99839.47
2023-01-04T08:09:18.031Z,99837.33
2023-01-04T08:11:47.128Z,99843.58
2023-01-04T08:14:15.004Z,99837.86
2023-01-04T08:16:43.649Z,99824.20
2023-01-04T08:19:15.785Z,99814.80
2023-01-04T08:21:44.768Z,99812.54
2023-01-04T08:24:15.379Z,99805.23
2023-01-04T08:26:44.472Z,99794.98
2023-01-04T08:29:13.527Z,99788.86
2023-01-04T08:31:42.018Z,99784.80
2023-01-04T08:34:10.641Z,99782.87
2023-01-04T08:36:50.630Z,99781.23
2023-01-04T08:39:19.017Z,99780.81
2023-01-04T08:42:10.837Z,99776.32
2023-01-04T08:44:41.746Z,99772.71
2023-01-04T08:47:09.667Z,99765.67
2023-01-04T08:49:37.636Z,99762.13
2023-01-04T08:52:05.723Z,99753.14
2023-01-04T08:54:33.727Z,99750.43
2023-01-04T08:57:01.576Z,99746.88
2023-01-04T08:59:29.975Z,99738.73
2023-01-04T09:02:04.964Z,99736.91
2023-01-04T09:04:33.827Z,99732.96
2023-01-04T09:07:01.773Z,99725.48
2023-01-04T09:09:30.236Z,99717.09
2023-01-04T09:11:59.734Z,99714.48
2023-01-04T09:14:27.987Z,99705.73
2023-01-04T09:16:56.003Z,99698.50
2023-01-04T09:19:23.996Z,99694.61
2023-01-04T09:21:52.067Z,99694.42
2023-01-04T09:24:20.133Z,99691.13
2023-01-04T09:26:48.237Z,99682.77
2023-01-04T09:29:16.460Z,99676.07
2023-01-04T09:31:44.523Z,99677.39
2023-01-04T09:34:15.115Z,99670.30
2023-01-04T09:36:45.946Z,99666.21
2023-01-04T09:39:21.527Z,99653.62
2023-01-04T09:41:58.024Z,99641.72
2023-01-04T09:45:03.335Z,99639.95
2023-01-04T09:47:45.024Z,99639.24
2023-01-04T09:50:19.038Z,99627.27
2023-01-04T09:53:07.491Z,99619.42
2023-01-04T09:55:41.259Z,99607.90
2023-01-04T09:58:18.034Z,99600.04
2023-01-04T10:00:51.517Z,99595.02
2023-01-04T10:03:25.538Z,99582.77
2023-01-04T10:05:55.805Z,99563.81
2023-01-04T10:08:24.384Z,99548.98
2023-01-04T10:11:11.290Z,99551.14
2023-01-04T10:14:06.120Z,99542.31
2023-01-04T10:17:11.957Z,99535.20
2023-01-04T10:21:12.892Z,99533.75
2023-01-04T10:22:47.187Z,99532.28
2023-01-04T10:25:15.103Z,99524.33
2023-01-04T10:28:06.917Z,99517.02
2023-01-04T10:30:43.832Z,99507.16
2023-01-04T10:33:24.376Z,99504.44
2023-01-04T10:35:53.124Z,99506.59
2023-01-04T10:38:25.819Z,99504.34
2023-01-04T10:40:55.392Z,99504.41
2023-01-04T10:44:12.154Z,99507.83
2023-01-04T10:46:47.886Z,99499.71
2023-01-04T10:49:21.843Z,99495.61
2023-01-04T10:51:57.039Z,99488.70
2023-01-04T10:54:39.550Z,99478.46
2023-01-04T10:57:36.503Z,99468.48
2023-01-04T11:00:11.485Z,99455.91
2023-01-04T11:02:57.234Z,99446.20
2023-01-04T11:05:30.758Z,99438.72
2023-01-04T11:08:11.083Z,99435.48
2023-01-04T11:10:48.361Z,99434.84
2023-01-04T11:13:16.454Z,99428.33
2023-01-04T11:15:45.560Z,99415.71
2023-01-04T11:18:15.109Z,99411.11
2023-01-04T11:20:43.253Z,99405.44
2023-01-04T11:23:20.410Z,99399.90
2023-01-04T11:26:00.806Z,99391.27
2023-01-04T11:28:36.340Z,99387.96
2023-01-04T11:31:10.441Z,99389.81
2023-01-04T11:33:51.968Z,99380.64
2023-01-04T11:36:31.937Z,99370.41
2023-01-04T11:39:00.241Z,99356.41
2023-01-04T11:41:28.992Z,99338.16
2023-01-04T11:44:06.859Z,99331.50
2023-01-04T11:46:35.319Z,99320.48
2023-01-04T11:49:03.336Z,99306.02
2023-01-04T11:51:31.825Z,99301.04
2023-01-04T11:54:05.193Z,99286.45
2023-01-04T11:56:36.151Z,99256.92
2023-01-04T11:59:25.210Z,99236.96
2023-01-04T12:02:42.679Z,99230.80
2023-01-04T12:05:28.780Z,99219.09
2023-01-04T12:07:59.453Z,99212.83
2023-01-04T12:10:28.704Z,99202.83
2023-01-04T12:13:01.224Z,99195.64
2023-01-04T12:15:53.701Z,99181.30
2023-01-04T12:18:28.066Z,99175.94
2023-01-04T12:20:57.297Z,99171.98
2023-01-04T12:23:25.254Z,99168.80
2023-01-04T12:25:54.381Z,99166.86
2023-01-04T12:28:40.010Z,99168.38
2023-01-04T12:31:21.040Z,99169.48
2023-01-04T12:33:58.138Z,99165.14
2023-01-04T12:36:38.345Z,99165.40
2023-01-04T12:39:15.068Z,99168.94
2023-01-04T12:42:01.343Z,99164.66
2023-01-04T12:44:46.866Z,99178.80
2023-01-04T12:47:36.389Z,99173.79
2023-01-04T12:50:15.122Z,99173.73
2023-01-04T12:53:19.541Z,99173.48
2023-01-04T12:55:44.147Z,99164.00
2023-01-04T12:58:42.342Z,99157.27
2023-01-04T13:01:28.384Z,99155.83
2023-01-04T13:04:05.689Z,99144.39
2023-01-04T13:06:42.751Z,99144.33
2023-01-04T13:09:24.907Z,99136.23
2023-01-04T13:11:56.163Z,99144.07
2023-01-04T13:14:36.382Z,99147.04
2023-01-04T13:17:16.636Z,99140.59
2023-01-04T13:19:45.324Z,99135.23
2023-01-04T13:22:29.174Z,99140.39
2023-01-04T13:25:00.235Z,99143.55
2023-01-04T13:27:28.426Z,99144.69
2023-01-04T13:29:57.080Z,99136.49
2023-01-04T13:32:31.174Z,99132.03
2023-01-04T13:35:09.887Z,99136.83
2023-01-04T13:37:45.047Z,99140.45
2023-01-04T13:40:21.838Z,99141.02
2023-01-04T13:43:10.653Z,99137.13
2023-01-04T13:46:03.827Z,99138.55
2023-01-04T13:48:43.389Z,99146.48
2023-01-04T13:51:11.214Z,99146.86
2023-01-04T13:53:40.041Z,99143.02
2023-01-04T13:56:22.002Z,99137.81
2023-01-04T13:58:50.321Z,99129.78
2023-01-04T14:01:27.835Z,99121.02
2023-01-04T14:04:02.325Z,99114.00
2023-01-04T14:06:48.617Z,99107.02
2023-01-04T14:09:25.051Z,99098.23
2023-01-04T14:12:06.195Z,99100.40
2023-01-04T14:14:58.142Z,99113.46
2023-01-04T14:20:36.733Z,99113.56
2023-01-04T14:23:05.188Z,99115.06
2023-01-04T14:25:37.093Z,99125.20
2023-01-04T14:28:24.896Z,99117.11
2023-01-04T14:30:56.364Z,99102.55
2023-01-04T14:33:33.490Z,99093.11
2023-01-04T14:36:09.487Z,99091.71
2023-01-04T14:38:59.469Z,99077.81
2023-01-04T14:41:43.591Z,99073.52
2023-01-04T14:44:11.745Z,99072.06
2023-01-04T14:46:41.960Z,99063.74
2023-01-04T14:49:10.401Z,99055.25
2023-01-04T14:51:48.628Z,99051.88
2023-01-04T14:54:24.251Z,99043.63
2023-01-04T14:56:55.348Z,99038.00
2023-01-04T14:59:24.221Z,99037.08
2023-01-04T15:01:57.543Z,99023.23
2023-01-04T15:04:25.713Z,99012.46
2023-01-04T15:06:59.893Z,99009.14
2023-01-04T15:09:29.173Z,99001.21
2023-01-04T15:11:57.653Z,98998.70
2023-01-04T15:14:25.708Z,99007.77
2023-01-04T15:16:53.683Z,99018.23
2023-01-04T15:19:22.053Z,99016.27
2023-01-04T15:21:49.942Z,99014.73
2023-01-04T15:24:17.909Z,99019.98
2023-01-04T15:26:45.895Z,99024.84
2023-01-04T15:29:13.988Z,99021.08
2023-01-04T15:31:43.840Z,99017.70
2023-01-04T15:34:12.048Z,99018.21
2023-01-04T15:36:41.232Z,99014.83
2023-01-04T15:39:15.709Z,99004.20
2023-01-04T15:42:02.783Z,99000.58
2023-01-04T15:44:30.739Z,99001.15
2023-01-04T15:46:59.786Z,98995.52
2023-01-04T15:49:30.631Z,98992.10
2023-01-04T15:51:58.741Z,98979.19
2023-01-04T15:54:27.914Z,98984.52
2023-01-04T15:56:56.205Z,98979.22
2023-01-04T15:59:24.513Z,98971.02
2023-01-04T16:01:52.608Z,98963.70
2023-01-04T16:04:20.722Z,98966.52
2023-01-04T16:06:48.721Z,98974.55
2023-01-04T16:09:16.625Z,98975.22
2023-01-04T16:12:02.951Z,98968.87
2023-01-04T16:14:30.871Z,98965.52
2023-01-04T16:16:58.758Z,98956.79
2023-01-04T16:19:27.598Z,98948.55
2023-01-04T16:21:56.211Z,98943.12
2023-01-04T16:27:12.526Z,98935.34
2023-01-04T16:29:40.478Z,98930.27
2023-01-04T16:32:10.498Z,98932.86
2023-01-04T16:34:40.416Z,98924.20
2023-01-04T16:37:08.449Z,98924.19
2023-01-04T16:42:24.304Z,98910.31
2023-01-04T16:44:52.265Z,98906.95
2023-01-04T16:47:20.226Z,98906.16
2023-01-04T16:49:52.748Z,98899.34
2023-01-04T16:52:20.956Z,98908.14
2023-01-04T16:54:49.206Z,98907.36
2023-01-04T16:57:17.106Z,98899.92
2023-01-04T16:59:44.984Z,98910.55
2023-01-04T17:02:13.102Z,98905.04
2023-01-04T17:04:41.145Z,98903.34
2023-01-04T17:07:09.175Z,98894.46
2023-01-04T17:09:41.215Z,98883.97
2023-01-04T17:12:45.538Z,98881.39
2023-01-04T17:17:45.139Z,98885.13
2023-01-04T17:20:13.215Z,98870.98
2023-01-04T17:22:41.033Z,98866.30
2023-01-04T17:25:09.026Z,98865.39
2023-01-04T17:27:36.948Z,98870.48
2023-01-04T17:30:05.493Z,98874.34
2023-01-04T17:32:33.484Z,98879.85
2023-01-04T17:35:01.424Z,98882.17
2023-01-04T17:37:29.394Z,98876.06
2023-01-04T17:39:57.422Z,98884.06
2023-01-04T17:42:25.302Z,98874.25
2023-01-04T17:44:53.599Z,98870.46
2023-01-04T17:47:21.823Z,98862.73
2023-01-04T17:49:49.877Z,98850.07
2023-01-04T17:52:24.351Z,98842.20
2023-01-04T17:54:56.898Z,98831.58
2023-01-04T17:57:24.836Z,98828.73
2023-01-04T17:59:52.737Z,98833.72
2023-01-04T18:02:20.650Z,98829.94
2023-01-04T18:04:48.584Z,98819.77
2023-01-04T18:07:16.557Z,98815.39
2023-01-04T18:09:44.423Z,98810.10
2023-01-04T18:12:12.351Z,98812.64
2023-01-04T18:14:40.348Z,98814.27
2023-01-04T18:17:08.297Z,98809.07
2023-01-04T18:19:37.422Z,98810.08
2023-01-04T18:22:07.151Z,98805.31
2023-01-04T18:24:37.161Z,98814.02
2023-01-04T18:27:25.635Z,98813.58
2023-01-04T18:29:55.632Z,98800.72
2023-01-04T18:32:25.665Z,98804.53
2023-01-04T18:34:53.740Z,98803.18
2023-01-04T18:37:22.190Z,98803.30
2023-01-04T18:39:50.307Z,98804.65
2023-01-04T18:42:18.450Z,98805.16
2023-01-04T18:44:49.446Z,98798.80
2023-01-04T18:47:20.107Z,98797.65
2023-01-04T18:49:49.544Z,98797.36
2023-01-04T18:52:18.441Z,98795.37
2023-01-04T18:54:48.083Z,98788.44
2023-01-04T18:57:16.293Z,98792.58
2023-01-04T18:59:44.323Z,98790.33
2023-01-04T19:02:20.873Z,98781.89
2023-01-04T19:04:49.343Z,98780.80
2023-01-04T19:07:17.520Z,98775.68
2023-01-04T19:09:45.466Z,98764.24
2023-01-04T19:12:13.693Z,98761.80
2023-01-04T19:14:42.065Z,98753.05
2023-01-04T19:17:11.007Z,98745.00
2023-01-04T19:19:39.043Z,98739.30
2023-01-04T19:22:06.989Z,98752.20
2023-01-04T19:24:35.012Z,98732.20
2023-01-04T19:27:03.344Z,98735.63
2023-01-04T19:29:34.042Z,98740.27
2023-01-04T19:32:02.830Z,98734.02
2023-01-04T19:34:30.879Z,98733.94
2023-01-04T19:36:59.366Z,98727.98
2023-01-04T19:39:27.333Z,98723.02
2023-01-04T19:41:55.544Z,98719.80
2023-01-04T19:44:23.444Z,98724.11
2023-01-04T19:46:51.336Z,98719.84
2023-01-04T19:49:19.427Z,98711.80
2023-01-04T19:51:49.106Z,98715.36
2023-01-04T19:54:24.749Z,98709.40
2023-01-04T19:56:54.077Z,98710.59
2023-01-04T19:59:22.373Z,98719.95
2023-01-04T20:01:50.518Z,98720.05
2023-01-04T20:04:18.564Z,98717.88
2023-01-04T20:06:46.528Z,98716.84
2023-01-04T20:09:14.593Z,98715.77
2023-01-04T20:11:42.456Z,98714.88
2023-01-04T20:14:10.323Z,98714.78
2023-01-04T20:16:38.205Z,98720.30
2023-01-04T20:19:06.134Z,98714.59
2023-01-04T20:21:34.058Z,98718.20
2023-01-04T20:24:02.396Z,98715.99
2023-01-04T20:26:30.317Z,98703.98
2023-01-04T20:28:58.364Z,98701.70
2023-01-04T20:31:26.292Z,98698.02
2023-01-04T20:33:55.917Z,98696.25
2023-01-04T20:36:31.457Z,98684.03
2023-01-04T20:39:02.203Z,98672.36
2023-01-04T20:41:31.732Z,98668.60
2023-01-04T20:44:01.481Z,98672.27
2023-01-04T20:46:33.800Z,98663.81
2023-01-04T20:49:02.947Z,98666.95
2023-01-04T20:51:30.982Z,98663.95
2023-01-04T20:54:01.779Z,98662.50
2023-01-04T20:56:32.414Z,98666.92
2023-01-04T20:59:00.737Z,98665.94
2023-01-04T21:01:28.739Z,98663.82
2023-01-04T21:03:56.771Z,98667.93
2023-01-04T21:06:25.075Z,98670.54
2023-01-04T21:08:55.121Z,98668.45
2023-01-04T21:11:23.695Z,98661.12
2023-01-04T21:13:52.778Z,98659.31
2023-01-04T21:16:20.864Z,98658.87
2023-01-04T21:18:48.796Z,98657.57
2023-01-04T21:21:18.325Z,98653.98
2023-01-04T21:23:48.766Z,98649.30
2023-01-04T21:26:20.235Z,98642.34
2023-01-04T21:28:48.343Z,98640.61
2023-01-04T21:31:19.322Z,98645.04
2023-01-04T21:33:47.971Z,98646.78
2023-01-04T21:36:24.085Z,98636.95
2023-01-04T21:38:58.023Z,98635.92
2023-01-04T21:41:26.329Z,98628.83
2023-01-04T21:43:57.744Z,98620.39
2023-01-04T21:46:26.833Z,98624.27
2023-01-04T21:49:01.496Z,98623.01
2023-01-04T21:51:30.295Z,98627.30
2023-01-04T21:53:58.817Z,98622.50
2023-01-04T21:56:26.758Z,98620.52
2023-01-04T21:58:54.761Z,98612.31
2023-01-04T22:01:34.102Z,98602.41
2023-01-04T22:04:04.234Z,98589.14
2023-01-04T22:06:34.170Z,98577.92
2023-01-04T22:09:02.152Z,98576.98
2023-01-04T22:11:30.146Z,98574.39
2023-01-04T22:13:58.058Z,98571.90
2023-01-04T22:16:26.032Z,98575.98
2023-01-04T22:18:54.029Z,98574.25
2023-01-04T22:21:24.984Z,98571.24
2023-01-04T22:23:54.073Z,98564.89
2023-01-04T22:26:22.404Z,98565.86
2023-01-04T22:28:50.239Z,98567.28
2023-01-04T22:31:18.194Z,98565.00
2023-01-04T22:33:46.112Z,98567.19
2023-01-04T22:36:22.254Z,98560.69
2023-01-04T22:38:54.095Z,98553.97
2023-01-04T22:41:25.275Z,98550.36
2023-01-04T22:43:58.214Z,98548.07
2023-01-04T22:46:27.865Z,98546.70
2023-01-04T22:48:56.355Z,98539.41
2023-01-04T22:51:27.520Z,98535.73
2023-01-04T22:53:57.293Z,98538.23
2023-01-04T22:56:25.615Z,98548.01
2023-01-04T22:58:55.635Z,98548.16
2023-01-04T23:01:26.957Z,98537.75
2023-01-04T23:03:56.577Z,98524.67
2023-01-04T23:06:26.000Z,98524.90
2023-01-04T23:08:59.514Z,98514.69
2023-01-04T23:11:28.790Z,98504.11
2023-01-04T23:13:57.028Z,98494.79
2023-01-04T23:16:31.915Z,98497.39
2023-01-04T23:19:05.671Z,98490.45
2023-01-04T23:21:34.203Z,98486.81
2023-01-04T23:24:04.748Z,98490.39
2023-01-04T23:26:33.676Z,98489.45
2023-01-04T23:29:02.389Z,98489.36
2023-01-04T23:31:32.135Z,98487.38
2023-01-04T23:34:02.611Z,98483.01
2023-01-04T23:36:33.780Z,98471.04
2023-01-04T23:39:06.881Z,98468.99
2023-01-04T23:41:47.691Z,98467.20
2023-01-04T23:44:28.021Z,98470.31
2023-01-04T23:47:01.333Z,98474.85
2023-01-04T23:49:31.429Z,98475.65
2023-01-04T23:52:00.300Z,98463.34
2023-01-04T23:54:29.011Z,98456.48
2023-01-04T23:56:57.470Z,98449.95
2023-01-04T23:59:25.826Z,98454.27
